sensor_id;sensor_type;location;lat;lon;timestamp;temperature;humidity
20891;DHT22;10605;52.968;8.844;2024-01-25T00:01:09;7.90;99.90
20891;DHT22;10605;52.968;8.844;2024-01-25T00:03:35;7.90;99.90
20891;DHT22;10605;52.968;8.844;2024-01-25T00:06:01;7.90;99.90
20891;DHT22;10605;52.968;8.844;2024-01-25T00:08:27;7.90;99.90
20891;DHT22;10605;52.968;8.844;2024-01-25T00:10:52;7.90;99.90
20891;DHT22;10605;52.968;8.844;2024-01-25T00:13:18;7.90;99.90
20891;DHT22;10605;52.968;8.844;2024-01-25T00:15:43;7.90;99.90
20891;DHT22;10605;52.968;8.844;2024-01-25T00:18:09;7.90;99.90
20891;DHT22;10605;52.968;8.844;2024-01-25T00:20:35;7.90;99.90
20891;DHT22;10605;52.968;8.844;2024-01-25T00:23:01;7.80;99.90
20891;DHT22;10605;52.968;8.844;2024-01-25T00:25:26;7.90;99.90
20891;DHT22;10605;52.968;8.844;2024-01-25T00:27:52;7.90;99.90
20891;DHT22;10605;52.968;8.844;2024-01-25T00:30:18;7.90;99.90
20891;DHT22;10605;52.968;8.844;2024-01-25T00:32:44;7.90;99.90
20891;DHT22;10605;52.968;8.844;2024-01-25T00:35:10;7.90;99.90
20891;DHT22;10605;52.968;8.844;2024-01-25T00:37:39;7.90;99.90
20891;DHT22;10605;52.968;8.844;2024-01-25T00:40:05;7.90;99.90
20891;DHT22;10605;52.968;8.844;2024-01-25T00:42:32;7.90;99.90
20891;DHT22;10605;52.968;8.844;2024-01-25T00:45:01;7.90;99.90
20891;DHT22;10605;52.968;8.844;2024-01-25T00:47:27;7.90;99.90
20891;DHT22;10605;52.968;8.844;2024-01-25T00:49:53;7.90;99.90
20891;DHT22;10605;52.968;8.844;2024-01-25T00:52:19;7.80;99.90
20891;DHT22;10605;52.968;8.844;2024-01-25T00:54:44;7.80;99.90
20891;DHT22;10605;52.968;8.844;2024-01-25T00:57:11;7.80;99.90
20891;DHT22;10605;52.968;8.844;2024-01-25T00:59:37;7.80;99.90
20891;DHT22;10605;52.968;8.844;2024-01-25T01:02:04;7.80;99.90
20891;DHT22;10605;52.968;8.844;2024-01-25T01:04:31;7.80;99.90
20891;DHT22;10605;52.968;8.844;2024-01-25T01:06:57;7.80;99.90
20891;DHT22;10605;52.968;8.844;2024-01-25T01:09:22;7.80;99.90
20891;DHT22;10605;52.968;8.844;2024-01-25T01:11:48;7.80;99.90
20891;DHT22;10605;52.968;8.844;2024-01-25T01:14:16;7.80;99.90
20891;DHT22;10605;52.968;8.844;2024-01-25T01:16:41;7.80;99.90
20891;DHT22;10605;52.968;8.844;2024-01-25T01:19:07;7.80;99.90
20891;DHT22;10605;52.968;8.844;2024-01-25T01:21:33;7.80;99.90
20891;DHT22;10605;52.968;8.844;2024-01-25T01:23:59;7.80;99.90
20891;DHT22;10605;52.968;8.844;2024-01-25T01:26:25;7.80;99.90
20891;DHT22;10605;52.968;8.844;2024-01-25T01:28:51;7.80;99.90
20891;DHT22;10605;52.968;8.844;2024-01-25T01:31:16;7.80;99.90
20891;DHT22;10605;52.968;8.844;2024-01-25T01:33:42;7.80;99.90
20891;DHT22;10605;52.968;8.844;2024-01-25T01:36:07;7.90;99.90
20891;DHT22;10605;52.968;8.844;2024-01-25T01:38:33;7.90;99.90
20891;DHT22;10605;52.968;8.844;2024-01-25T01:40:59;7.90;99.90
20891;DHT22;10605;52.968;8.844;2024-01-25T01:43:24;7.90;99.90
20891;DHT22;10605;52.968;8.844;2024-01-25T01:45:50;7.90;99.90
20891;DHT22;10605;52.968;8.844;2024-01-25T01:48:16;7.90;99.90
20891;DHT22;10605;52.968;8.844;2024-01-25T01:50:45;7.90;99.90
20891;DHT22;10605;52.968;8.844;2024-01-25T01:53:11;7.90;99.90
20891;DHT22;10605;52.968;8.844;2024-01-25T01:55:39;7.80;99.90
20891;DHT22;10605;52.968;8.844;2024-01-25T01:58:05;7.80;99.90
20891;DHT22;10605;52.968;8.844;2024-01-25T02:00:32;7.70;99.90
20891;DHT22;10605;52.968;8.844;2024-01-25T02:02:59;7.80;99.90
20891;DHT22;10605;52.968;8.844;2024-01-25T02:05:24;7.70;99.90
20891;DHT22;10605;52.968;8.844;2024-01-25T02:07:50;7.70;99.90
20891;DHT22;10605;52.968;8.844;2024-01-25T02:10:18;7.70;99.90
20891;DHT22;10605;52.968;8.844;2024-01-25T02:12:43;7.70;99.90
20891;DHT22;10605;52.968;8.844;2024-01-25T02:15:09;7.70;99.90
20891;DHT22;10605;52.968;8.844;2024-01-25T02:17:35;7.60;99.90
20891;DHT22;10605;52.968;8.844;2024-01-25T02:20:00;7.70;99.90
20891;DHT22;10605;52.968;8.844;2024-01-25T02:22:28;7.60;99.90
20891;DHT22;10605;52.968;8.844;2024-01-25T02:24:54;7.60;99.90
20891;DHT22;10605;52.968;8.844;2024-01-25T02:27:19;7.50;99.90
20891;DHT22;10605;52.968;8.844;2024-01-25T02:29:45;7.50;99.90
20891;DHT22;10605;52.968;8.844;2024-01-25T02:32:11;7.50;99.90
20891;DHT22;10605;52.968;8.844;2024-01-25T02:34:36;7.50;99.90
20891;DHT22;10605;52.968;8.844;2024-01-25T02:37:02;7.50;99.90
20891;DHT22;10605;52.968;8.844;2024-01-25T02:39:28;7.50;99.90
20891;DHT22;10605;52.968;8.844;2024-01-25T02:41:53;7.50;99.90
20891;DHT22;10605;52.968;8.844;2024-01-25T02:44:19;7.50;99.90
20891;DHT22;10605;52.968;8.844;2024-01-25T02:46:45;7.40;99.90
20891;DHT22;10605;52.968;8.844;2024-01-25T02:49:11;7.40;99.90
20891;DHT22;10605;52.968;8.844;2024-01-25T02:51:37;7.40;99.90
20891;DHT22;10605;52.968;8.844;2024-01-25T02:54:03;7.40;99.90
20891;DHT22;10605;52.968;8.844;2024-01-25T02:56:28;7.40;99.90
20891;DHT22;10605;52.968;8.844;2024-01-25T02:59:00;7.30;99.90
20891;DHT22;10605;52.968;8.844;2024-01-25T03:01:26;7.30;99.90
20891;DHT22;10605;52.968;8.844;2024-01-25T03:03:53;7.30;99.90
20891;DHT22;10605;52.968;8.844;2024-01-25T03:06:19;7.20;99.90
20891;DHT22;10605;52.968;8.844;2024-01-25T03:08:45;7.30;99.90
20891;DHT22;10605;52.968;8.844;2024-01-25T03:11:10;7.20;99.90
20891;DHT22;10605;52.968;8.844;2024-01-25T03:13:36;7.20;99.90
20891;DHT22;10605;52.968;8.844;2024-01-25T03:16:02;7.20;99.90
20891;DHT22;10605;52.968;8.844;2024-01-25T03:18:27;7.20;99.90
20891;DHT22;10605;52.968;8.844;2024-01-25T03:20:53;7.10;99.90
20891;DHT22;10605;52.968;8.844;2024-01-25T03:23:19;7.20;99.90
20891;DHT22;10605;52.968;8.844;2024-01-25T03:25:44;7.20;99.90
20891;DHT22;10605;52.968;8.844;2024-01-25T03:28:10;7.10;99.90
20891;DHT22;10605;52.968;8.844;2024-01-25T03:30:38;7.10;99.90
20891;DHT22;10605;52.968;8.844;2024-01-25T03:33:04;7.10;99.90
20891;DHT22;10605;52.968;8.844;2024-01-25T03:35:29;7.10;99.90
20891;DHT22;10605;52.968;8.844;2024-01-25T03:37:55;7.00;99.90
20891;DHT22;10605;52.968;8.844;2024-01-25T03:40:21;7.00;99.90
20891;DHT22;10605;52.968;8.844;2024-01-25T03:42:46;7.00;99.90
20891;DHT22;10605;52.968;8.844;2024-01-25T03:45:12;6.90;99.90
20891;DHT22;10605;52.968;8.844;2024-01-25T03:47:37;6.90;99.90
20891;DHT22;10605;52.968;8.844;2024-01-25T03:50:03;6.90;99.90
20891;DHT22;10605;52.968;8.844;2024-01-25T03:52:29;6.90;99.90
20891;DHT22;10605;52.968;8.844;2024-01-25T03:54:55;6.90;99.90
20891;DHT22;10605;52.968;8.844;2024-01-25T03:57:21;6.90;99.90
20891;DHT22;10605;52.968;8.844;2024-01-25T03:59:47;6.90;99.90
20891;DHT22;10605;52.968;8.844;2024-01-25T04:02:12;6.90;99.90
20891;DHT22;10605;52.968;8.844;2024-01-25T04:04:38;6.80;99.90
20891;DHT22;10605;52.968;8.844;2024-01-25T04:07:04;6.90;99.90
20891;DHT22;10605;52.968;8.844;2024-01-25T04:09:29;6.90;99.90
20891;DHT22;10605;52.968;8.844;2024-01-25T04:11:56;6.90;99.90
20891;DHT22;10605;52.968;8.844;2024-01-25T04:14:21;6.80;99.90
20891;DHT22;10605;52.968;8.844;2024-01-25T04:16:47;6.80;99.90
20891;DHT22;10605;52.968;8.844;2024-01-25T04:19:13;6.80;99.90
20891;DHT22;10605;52.968;8.844;2024-01-25T04:21:38;6.80;99.90
20891;DHT22;10605;52.968;8.844;2024-01-25T04:24:04;6.80;99.90
20891;DHT22;10605;52.968;8.844;2024-01-25T04:26:30;6.80;99.90
20891;DHT22;10605;52.968;8.844;2024-01-25T04:28:56;6.70;99.90
20891;DHT22;10605;52.968;8.844;2024-01-25T04:31:21;6.80;99.90
20891;DHT22;10605;52.968;8.844;2024-01-25T04:33:47;6.70;99.90
20891;DHT22;10605;52.968;8.844;2024-01-25T04:36:12;6.80;99.90
20891;DHT22;10605;52.968;8.844;2024-01-25T04:38:38;6.80;99.90
20891;DHT22;10605;52.968;8.844;2024-01-25T04:41:04;6.80;99.90
20891;DHT22;10605;52.968;8.844;2024-01-25T04:43:34;6.80;99.90
20891;DHT22;10605;52.968;8.844;2024-01-25T04:46:01;6.80;99.90
20891;DHT22;10605;52.968;8.844;2024-01-25T04:48:26;6.80;99.90
20891;DHT22;10605;52.968;8.844;2024-01-25T04:50:52;6.80;99.90
20891;DHT22;10605;52.968;8.844;2024-01-25T04:53:17;6.80;99.90
20891;DHT22;10605;52.968;8.844;2024-01-25T04:55:43;6.80;99.90
20891;DHT22;10605;52.968;8.844;2024-01-25T04:58:08;6.80;99.90
20891;DHT22;10605;52.968;8.844;2024-01-25T05:00:34;6.90;99.90
20891;DHT22;10605;52.968;8.844;2024-01-25T05:03:00;6.80;99.90
20891;DHT22;10605;52.968;8.844;2024-01-25T05:05:26;6.80;99.90
20891;DHT22;10605;52.968;8.844;2024-01-25T05:07:52;6.80;99.90
20891;DHT22;10605;52.968;8.844;2024-01-25T05:10:17;6.70;99.90
20891;DHT22;10605;52.968;8.844;2024-01-25T05:12:43;6.70;99.90
20891;DHT22;10605;52.968;8.844;2024-01-25T05:15:09;6.60;99.90
20891;DHT22;10605;52.968;8.844;2024-01-25T05:17:35;6.60;99.90
20891;DHT22;10605;52.968;8.844;2024-01-25T05:20:00;6.60;99.90
20891;DHT22;10605;52.968;8.844;2024-01-25T05:22:26;6.60;99.90
20891;DHT22;10605;52.968;8.844;2024-01-25T05:24:52;6.60;99.90
20891;DHT22;10605;52.968;8.844;2024-01-25T05:27:17;6.50;99.90
20891;DHT22;10605;52.968;8.844;2024-01-25T05:29:43;6.50;99.90
20891;DHT22;10605;52.968;8.844;2024-01-25T05:32:08;6.50;99.90
20891;DHT22;10605;52.968;8.844;2024-01-25T05:34:34;6.40;99.90
20891;DHT22;10605;52.968;8.844;2024-01-25T05:36:59;6.50;99.90
20891;DHT22;10605;52.968;8.844;2024-01-25T05:39:25;6.50;99.90
20891;DHT22;10605;52.968;8.844;2024-01-25T05:41:51;6.40;99.90
20891;DHT22;10605;52.968;8.844;2024-01-25T05:44:17;6.40;99.90
20891;DHT22;10605;52.968;8.844;2024-01-25T05:46:42;6.40;99.90
20891;DHT22;10605;52.968;8.844;2024-01-25T05:49:08;6.30;99.90
20891;DHT22;10605;52.968;8.844;2024-01-25T05:51:33;6.40;99.90
20891;DHT22;10605;52.968;8.844;2024-01-25T05:53:59;6.40;99.90
20891;DHT22;10605;52.968;8.844;2024-01-25T05:56:24;6.40;99.90
20891;DHT22;10605;52.968;8.844;2024-01-25T05:58:51;6.50;99.90
20891;DHT22;10605;52.968;8.844;2024-01-25T06:01:16;6.50;99.90
20891;DHT22;10605;52.968;8.844;2024-01-25T06:03:42;6.50;99.90
20891;DHT22;10605;52.968;8.844;2024-01-25T06:06:07;6.50;99.90
20891;DHT22;10605;52.968;8.844;2024-01-25T06:08:33;6.40;99.90
20891;DHT22;10605;52.968;8.844;2024-01-25T06:10:59;6.40;99.90
20891;DHT22;10605;52.968;8.844;2024-01-25T06:13:25;6.40;99.90
20891;DHT22;10605;52.968;8.844;2024-01-25T06:15:50;6.50;99.90
20891;DHT22;10605;52.968;8.844;2024-01-25T06:18:16;6.50;99.90
20891;DHT22;10605;52.968;8.844;2024-01-25T06:20:42;6.50;99.90
20891;DHT22;10605;52.968;8.844;2024-01-25T06:23:09;6.50;99.90
20891;DHT22;10605;52.968;8.844;2024-01-25T06:25:35;6.50;99.90
20891;DHT22;10605;52.968;8.844;2024-01-25T06:28:02;6.50;99.90
20891;DHT22;10605;52.968;8.844;2024-01-25T06:30:32;6.50;99.90
20891;DHT22;10605;52.968;8.844;2024-01-25T06:32:57;6.50;99.90
20891;DHT22;10605;52.968;8.844;2024-01-25T06:35:23;6.50;99.90
20891;DHT22;10605;52.968;8.844;2024-01-25T06:37:48;6.50;99.90
20891;DHT22;10605;52.968;8.844;2024-01-25T06:40:14;6.40;99.90
20891;DHT22;10605;52.968;8.844;2024-01-25T06:42:40;6.40;99.90
20891;DHT22;10605;52.968;8.844;2024-01-25T06:45:06;6.30;99.90
20891;DHT22;10605;52.968;8.844;2024-01-25T06:47:31;6.30;99.90
20891;DHT22;10605;52.968;8.844;2024-01-25T06:49:57;6.30;99.90
20891;DHT22;10605;52.968;8.844;2024-01-25T06:52:22;6.30;99.90
20891;DHT22;10605;52.968;8.844;2024-01-25T06:54:48;6.30;99.90
20891;DHT22;10605;52.968;8.844;2024-01-25T06:57:14;6.20;99.90
20891;DHT22;10605;52.968;8.844;2024-01-25T06:59:39;6.20;99.90
20891;DHT22;10605;52.968;8.844;2024-01-25T07:02:05;6.30;99.90
20891;DHT22;10605;52.968;8.844;2024-01-25T07:04:31;6.20;99.90
20891;DHT22;10605;52.968;8.844;2024-01-25T07:06:58;6.20;99.90
20891;DHT22;10605;52.968;8.844;2024-01-25T07:09:25;6.20;99.90
20891;DHT22;10605;52.968;8.844;2024-01-25T07:11:51;6.30;99.90
20891;DHT22;10605;52.968;8.844;2024-01-25T07:14:17;6.30;99.90
20891;DHT22;10605;52.968;8.844;2024-01-25T07:16:42;6.30;99.90
20891;DHT22;10605;52.968;8.844;2024-01-25T07:19:08;6.40;99.90
20891;DHT22;10605;52.968;8.844;2024-01-25T07:21:34;6.40;99.90
20891;DHT22;10605;52.968;8.844;2024-01-25T07:24:02;6.40;99.90
20891;DHT22;10605;52.968;8.844;2024-01-25T07:26:27;6.40;99.90
20891;DHT22;10605;52.968;8.844;2024-01-25T07:28:53;6.50;99.90
20891;DHT22;10605;52.968;8.844;2024-01-25T07:31:24;6.50;99.90
20891;DHT22;10605;52.968;8.844;2024-01-25T07:33:50;6.50;99.90
20891;DHT22;10605;52.968;8.844;2024-01-25T07:36:16;6.50;99.90
20891;DHT22;10605;52.968;8.844;2024-01-25T07:38:42;6.50;99.90
20891;DHT22;10605;52.968;8.844;2024-01-25T07:41:08;6.60;99.90
20891;DHT22;10605;52.968;8.844;2024-01-25T07:43:33;6.50;99.90
20891;DHT22;10605;52.968;8.844;2024-01-25T07:45:59;6.60;99.90
20891;DHT22;10605;52.968;8.844;2024-01-25T07:48:24;6.60;99.90
20891;DHT22;10605;52.968;8.844;2024-01-25T07:50:50;6.60;99.90
20891;DHT22;10605;52.968;8.844;2024-01-25T07:53:16;6.60;99.90
20891;DHT22;10605;52.968;8.844;2024-01-25T07:55:41;6.70;99.90
20891;DHT22;10605;52.968;8.844;2024-01-25T07:58:07;6.70;99.90
20891;DHT22;10605;52.968;8.844;2024-01-25T08:00:33;6.70;99.90
20891;DHT22;10605;52.968;8.844;2024-01-25T08:02:58;6.70;99.90
20891;DHT22;10605;52.968;8.844;2024-01-25T08:05:24;6.80;99.90
20891;DHT22;10605;52.968;8.844;2024-01-25T08:07:50;6.80;99.90
20891;DHT22;10605;52.968;8.844;2024-01-25T08:10:16;6.90;99.90
20891;DHT22;10605;52.968;8.844;2024-01-25T08:12:41;6.80;99.90
20891;DHT22;10605;52.968;8.844;2024-01-25T08:15:10;6.90;99.90
20891;DHT22;10605;52.968;8.844;2024-01-25T08:17:37;7.10;99.90
20891;DHT22;10605;52.968;8.844;2024-01-25T08:20:03;7.10;99.90
20891;DHT22;10605;52.968;8.844;2024-01-25T08:22:31;7.00;99.90
20891;DHT22;10605;52.968;8.844;2024-01-25T08:24:57;7.00;99.90
20891;DHT22;10605;52.968;8.844;2024-01-25T08:27:23;7.00;99.90
20891;DHT22;10605;52.968;8.844;2024-01-25T08:29:48;7.00;99.90
20891;DHT22;10605;52.968;8.844;2024-01-25T08:32:14;7.10;99.90
20891;DHT22;10605;52.968;8.844;2024-01-25T08:34:39;7.10;99.90
20891;DHT22;10605;52.968;8.844;2024-01-25T08:37:05;7.10;99.90
20891;DHT22;10605;52.968;8.844;2024-01-25T08:39:31;7.10;99.90
20891;DHT22;10605;52.968;8.844;2024-01-25T08:41:56;7.20;99.90
20891;DHT22;10605;52.968;8.844;2024-01-25T08:44:31;7.30;99.90
20891;DHT22;10605;52.968;8.844;2024-01-25T08:46:57;7.20;99.90
20891;DHT22;10605;52.968;8.844;2024-01-25T08:49:22;7.10;99.90
20891;DHT22;10605;52.968;8.844;2024-01-25T08:51:48;7.20;99.90
20891;DHT22;10605;52.968;8.844;2024-01-25T08:54:14;7.20;99.90
20891;DHT22;10605;52.968;8.844;2024-01-25T08:56:42;7.20;99.90
20891;DHT22;10605;52.968;8.844;2024-01-25T08:59:08;7.20;99.90
20891;DHT22;10605;52.968;8.844;2024-01-25T09:01:34;7.30;99.90
20891;DHT22;10605;52.968;8.844;2024-01-25T09:03:59;7.40;99.90
20891;DHT22;10605;52.968;8.844;2024-01-25T09:06:29;7.40;99.90
20891;DHT22;10605;52.968;8.844;2024-01-25T09:08:55;7.60;99.90
20891;DHT22;10605;52.968;8.844;2024-01-25T09:11:21;7.60;99.90
20891;DHT22;10605;52.968;8.844;2024-01-25T09:13:47;7.80;99.90
20891;DHT22;10605;52.968;8.844;2024-01-25T09:16:13;7.60;99.90
20891;DHT22;10605;52.968;8.844;2024-01-25T09:18:39;7.60;99.90
20891;DHT22;10605;52.968;8.844;2024-01-25T09:21:05;7.70;99.90
20891;DHT22;10605;52.968;8.844;2024-01-25T09:23:30;7.80;99.90
20891;DHT22;10605;52.968;8.844;2024-01-25T09:25:56;7.90;99.90
20891;DHT22;10605;52.968;8.844;2024-01-25T09:28:22;8.00;99.90
20891;DHT22;10605;52.968;8.844;2024-01-25T09:30:47;8.00;99.90
20891;DHT22;10605;52.968;8.844;2024-01-25T09:33:14;8.10;99.90
20891;DHT22;10605;52.968;8.844;2024-01-25T09:35:40;8.10;99.90
20891;DHT22;10605;52.968;8.844;2024-01-25T09:38:06;8.00;99.90
20891;DHT22;10605;52.968;8.844;2024-01-25T09:40:31;8.20;99.90
20891;DHT22;10605;52.968;8.844;2024-01-25T09:42:58;8.10;99.90
20891;DHT22;10605;52.968;8.844;2024-01-25T09:45:24;8.20;99.90
20891;DHT22;10605;52.968;8.844;2024-01-25T09:47:50;8.30;99.90
20891;DHT22;10605;52.968;8.844;2024-01-25T09:50:16;8.10;99.90
20891;DHT22;10605;52.968;8.844;2024-01-25T09:52:52;8.20;99.90
20891;DHT22;10605;52.968;8.844;2024-01-25T09:55:24;8.50;99.90
20891;DHT22;10605;52.968;8.844;2024-01-25T09:57:53;8.50;99.90
20891;DHT22;10605;52.968;8.844;2024-01-25T10:00:22;8.50;99.90
20891;DHT22;10605;52.968;8.844;2024-01-25T10:02:49;8.50;99.90
20891;DHT22;10605;52.968;8.844;2024-01-25T10:05:17;8.40;99.90
20891;DHT22;10605;52.968;8.844;2024-01-25T10:07:52;8.50;99.90
20891;DHT22;10605;52.968;8.844;2024-01-25T10:10:19;8.70;99.90
20891;DHT22;10605;52.968;8.844;2024-01-25T10:12:45;8.70;99.90
20891;DHT22;10605;52.968;8.844;2024-01-25T10:15:11;8.50;99.90
20891;DHT22;10605;52.968;8.844;2024-01-25T10:17:36;8.30;99.90
20891;DHT22;10605;52.968;8.844;2024-01-25T10:20:05;8.20;99.90
20891;DHT22;10605;52.968;8.844;2024-01-25T10:22:33;8.20;99.90
20891;DHT22;10605;52.968;8.844;2024-01-25T10:24:58;8.10;99.90
20891;DHT22;10605;52.968;8.844;2024-01-25T10:27:24;8.10;99.90
20891;DHT22;10605;52.968;8.844;2024-01-25T10:29:49;8.00;99.90
20891;DHT22;10605;52.968;8.844;2024-01-25T10:32:16;8.00;99.90
20891;DHT22;10605;52.968;8.844;2024-01-25T10:34:43;8.10;99.90
20891;DHT22;10605;52.968;8.844;2024-01-25T10:37:13;8.20;99.90
20891;DHT22;10605;52.968;8.844;2024-01-25T10:39:41;8.30;99.90
20891;DHT22;10605;52.968;8.844;2024-01-25T10:42:07;8.20;99.90
20891;DHT22;10605;52.968;8.844;2024-01-25T10:44:33;8.20;99.90
20891;DHT22;10605;52.968;8.844;2024-01-25T10:46:59;8.40;99.90
20891;DHT22;10605;52.968;8.844;2024-01-25T10:49:25;8.60;99.90
20891;DHT22;10605;52.968;8.844;2024-01-25T10:51:51;8.90;99.90
20891;DHT22;10605;52.968;8.844;2024-01-25T10:54:17;8.90;99.90
20891;DHT22;10605;52.968;8.844;2024-01-25T10:56:44;9.00;99.90
20891;DHT22;10605;52.968;8.844;2024-01-25T10:59:11;9.10;99.90
20891;DHT22;10605;52.968;8.844;2024-01-25T11:01:37;9.20;99.90
20891;DHT22;10605;52.968;8.844;2024-01-25T11:04:11;9.40;99.90
20891;DHT22;10605;52.968;8.844;2024-01-25T11:06:37;9.50;99.90
20891;DHT22;10605;52.968;8.844;2024-01-25T11:09:06;9.80;99.90
20891;DHT22;10605;52.968;8.844;2024-01-25T11:11:32;9.60;99.90
20891;DHT22;10605;52.968;8.844;2024-01-25T11:14:01;9.70;99.90
20891;DHT22;10605;52.968;8.844;2024-01-25T11:16:31;9.80;99.90
20891;DHT22;10605;52.968;8.844;2024-01-25T11:18:58;10.00;99.90
20891;DHT22;10605;52.968;8.844;2024-01-25T11:21:49;9.80;99.90
20891;DHT22;10605;52.968;8.844;2024-01-25T11:24:24;9.50;99.90
20891;DHT22;10605;52.968;8.844;2024-01-25T11:26:54;9.50;99.90
20891;DHT22;10605;52.968;8.844;2024-01-25T11:29:21;9.50;99.90
20891;DHT22;10605;52.968;8.844;2024-01-25T11:31:51;9.30;99.90
20891;DHT22;10605;52.968;8.844;2024-01-25T11:34:16;9.50;99.90
20891;DHT22;10605;52.968;8.844;2024-01-25T11:36:44;9.50;99.90
20891;DHT22;10605;52.968;8.844;2024-01-25T11:39:10;9.20;99.90
20891;DHT22;10605;52.968;8.844;2024-01-25T11:41:37;8.90;99.90
20891;DHT22;10605;52.968;8.844;2024-01-25T11:44:03;8.80;99.90
20891;DHT22;10605;52.968;8.844;2024-01-25T11:46:30;8.60;99.90
20891;DHT22;10605;52.968;8.844;2024-01-25T11:48:57;8.50;99.90
20891;DHT22;10605;52.968;8.844;2024-01-25T11:51:23;8.50;99.90
20891;DHT22;10605;52.968;8.844;2024-01-25T11:53:48;8.60;99.90
20891;DHT22;10605;52.968;8.844;2024-01-25T11:56:21;8.50;99.90
20891;DHT22;10605;52.968;8.844;2024-01-25T11:58:49;8.30;99.90
20891;DHT22;10605;52.968;8.844;2024-01-25T12:01:15;8.30;99.90
20891;DHT22;10605;52.968;8.844;2024-01-25T12:03:41;8.20;99.90
20891;DHT22;10605;52.968;8.844;2024-01-25T12:06:07;8.30;99.90
20891;DHT22;10605;52.968;8.844;2024-01-25T12:08:35;8.30;99.90
20891;DHT22;10605;52.968;8.844;2024-01-25T12:11:10;8.50;99.90
20891;DHT22;10605;52.968;8.844;2024-01-25T12:13:40;8.50;99.90
20891;DHT22;10605;52.968;8.844;2024-01-25T12:16:06;8.80;99.90
20891;DHT22;10605;52.968;8.844;2024-01-25T12:18:33;8.90;99.90
20891;DHT22;10605;52.968;8.844;2024-01-25T12:21:01;9.30;99.90
20891;DHT22;10605;52.968;8.844;2024-01-25T12:23:34;9.20;99.90
20891;DHT22;10605;52.968;8.844;2024-01-25T12:26:01;9.00;99.90
20891;DHT22;10605;52.968;8.844;2024-01-25T12:28:27;8.90;99.90
20891;DHT22;10605;52.968;8.844;2024-01-25T12:31:00;8.80;99.90
20891;DHT22;10605;52.968;8.844;2024-01-25T12:33:34;8.80;99.90
20891;DHT22;10605;52.968;8.844;2024-01-25T12:36:02;8.80;99.90
20891;DHT22;10605;52.968;8.844;2024-01-25T12:38:27;8.60;99.90
20891;DHT22;10605;52.968;8.844;2024-01-25T12:40:54;8.40;99.90
20891;DHT22;10605;52.968;8.844;2024-01-25T12:43:20;8.10;99.90
20891;DHT22;10605;52.968;8.844;2024-01-25T12:45:49;8.10;99.90
20891;DHT22;10605;52.968;8.844;2024-01-25T12:48:15;8.00;99.90
20891;DHT22;10605;52.968;8.844;2024-01-25T12:50:41;7.90;99.90
20891;DHT22;10605;52.968;8.844;2024-01-25T12:53:07;7.90;99.90
20891;DHT22;10605;52.968;8.844;2024-01-25T12:55:33;8.00;99.90
20891;DHT22;10605;52.968;8.844;2024-01-25T12:57:59;8.20;99.90
20891;DHT22;10605;52.968;8.844;2024-01-25T13:00:25;8.40;99.90
20891;DHT22;10605;52.968;8.844;2024-01-25T13:02:51;8.50;99.90
20891;DHT22;10605;52.968;8.844;2024-01-25T13:05:17;8.50;99.90
20891;DHT22;10605;52.968;8.844;2024-01-25T13:07:43;8.40;99.90
20891;DHT22;10605;52.968;8.844;2024-01-25T13:10:09;8.40;99.90
20891;DHT22;10605;52.968;8.844;2024-01-25T13:12:39;8.40;99.90
20891;DHT22;10605;52.968;8.844;2024-01-25T13:15:06;8.40;99.90
20891;DHT22;10605;52.968;8.844;2024-01-25T13:17:34;8.40;99.90
20891;DHT22;10605;52.968;8.844;2024-01-25T13:20:00;8.40;99.90
20891;DHT22;10605;52.968;8.844;2024-01-25T13:22:25;8.40;99.90
20891;DHT22;10605;52.968;8.844;2024-01-25T13:24:51;8.40;99.90
20891;DHT22;10605;52.968;8.844;2024-01-25T13:27:17;8.40;99.90
20891;DHT22;10605;52.968;8.844;2024-01-25T13:29:42;8.40;99.90
20891;DHT22;10605;52.968;8.844;2024-01-25T13:32:08;8.40;99.90
20891;DHT22;10605;52.968;8.844;2024-01-25T13:34:34;8.40;99.90
20891;DHT22;10605;52.968;8.844;2024-01-25T13:37:00;8.40;99.90
20891;DHT22;10605;52.968;8.844;2024-01-25T13:39:26;8.40;99.90
20891;DHT22;10605;52.968;8.844;2024-01-25T13:41:52;8.30;99.90
20891;DHT22;10605;52.968;8.844;2024-01-25T13:44:17;8.30;99.90
20891;DHT22;10605;52.968;8.844;2024-01-25T13:46:43;8.30;99.90
20891;DHT22;10605;52.968;8.844;2024-01-25T13:49:09;8.30;99.90
20891;DHT22;10605;52.968;8.844;2024-01-25T13:51:34;8.20;99.90
20891;DHT22;10605;52.968;8.844;2024-01-25T13:54:01;8.10;99.90
20891;DHT22;10605;52.968;8.844;2024-01-25T13:56:27;8.10;99.90
20891;DHT22;10605;52.968;8.844;2024-01-25T13:58:52;8.00;99.90
20891;DHT22;10605;52.968;8.844;2024-01-25T14:01:19;8.00;99.90
20891;DHT22;10605;52.968;8.844;2024-01-25T14:03:45;8.00;99.90
20891;DHT22;10605;52.968;8.844;2024-01-25T14:06:11;8.00;99.90
20891;DHT22;10605;52.968;8.844;2024-01-25T14:08:36;7.90;99.90
20891;DHT22;10605;52.968;8.844;2024-01-25T14:11:03;7.90;99.90
20891;DHT22;10605;52.968;8.844;2024-01-25T14:13:29;7.90;99.90
20891;DHT22;10605;52.968;8.844;2024-01-25T14:15:55;7.80;99.90
20891;DHT22;10605;52.968;8.844;2024-01-25T14:18:21;7.80;99.90
20891;DHT22;10605;52.968;8.844;2024-01-25T14:20:46;7.80;99.90
20891;DHT22;10605;52.968;8.844;2024-01-25T14:23:12;7.80;99.90
20891;DHT22;10605;52.968;8.844;2024-01-25T14:25:38;7.80;99.90
20891;DHT22;10605;52.968;8.844;2024-01-25T14:28:03;7.80;99.90
20891;DHT22;10605;52.968;8.844;2024-01-25T14:30:29;7.80;99.90
20891;DHT22;10605;52.968;8.844;2024-01-25T14:32:55;7.80;99.90
20891;DHT22;10605;52.968;8.844;2024-01-25T14:35:22;7.80;99.90
20891;DHT22;10605;52.968;8.844;2024-01-25T14:37:54;7.90;99.90
20891;DHT22;10605;52.968;8.844;2024-01-25T14:40:19;7.90;99.90
20891;DHT22;10605;52.968;8.844;2024-01-25T14:42:45;7.90;99.90
20891;DHT22;10605;52.968;8.844;2024-01-25T14:45:11;7.90;99.90
20891;DHT22;10605;52.968;8.844;2024-01-25T14:47:36;7.90;99.90
20891;DHT22;10605;52.968;8.844;2024-01-25T14:50:02;7.90;99.90
20891;DHT22;10605;52.968;8.844;2024-01-25T14:52:28;7.90;99.90
20891;DHT22;10605;52.968;8.844;2024-01-25T14:54:53;7.80;99.90
20891;DHT22;10605;52.968;8.844;2024-01-25T14:57:19;7.80;99.90
20891;DHT22;10605;52.968;8.844;2024-01-25T14:59:45;7.80;99.90
20891;DHT22;10605;52.968;8.844;2024-01-25T15:02:11;7.80;99.90
20891;DHT22;10605;52.968;8.844;2024-01-25T15:04:37;7.70;99.90
20891;DHT22;10605;52.968;8.844;2024-01-25T15:07:03;7.60;99.90
20891;DHT22;10605;52.968;8.844;2024-01-25T15:09:28;7.50;99.90
20891;DHT22;10605;52.968;8.844;2024-01-25T15:11:54;7.40;99.90
20891;DHT22;10605;52.968;8.844;2024-01-25T15:14:20;7.40;99.90
20891;DHT22;10605;52.968;8.844;2024-01-25T15:16:45;7.30;99.90
20891;DHT22;10605;52.968;8.844;2024-01-25T15:19:11;7.30;99.90
20891;DHT22;10605;52.968;8.844;2024-01-25T15:21:37;7.20;99.90
20891;DHT22;10605;52.968;8.844;2024-01-25T15:24:03;7.10;99.90
20891;DHT22;10605;52.968;8.844;2024-01-25T15:26:29;7.10;99.90
20891;DHT22;10605;52.968;8.844;2024-01-25T15:28:54;7.10;99.90
20891;DHT22;10605;52.968;8.844;2024-01-25T15:31:20;7.00;99.90
20891;DHT22;10605;52.968;8.844;2024-01-25T15:33:45;6.90;99.90
20891;DHT22;10605;52.968;8.844;2024-01-25T15:36:11;6.90;99.90
20891;DHT22;10605;52.968;8.844;2024-01-25T15:38:36;6.70;99.90